Terminal Aerodrome Forecast
Issued by NWS Atlanta, GA

Home | Current Version | Previous Version | Text Only | Print | Product List | Glossary On
Versions: 1 2 3 4 5 6 7 8 9 10 11 12 13 14 15 16 17 18 19 20 21 22 23 24 25 26 27 28 29 30 31 32 33 34 35 36 37 38
000
FTUS42 KFFC 261738
TAFATL
TAF
KATL 261738Z 2618/2724 06006KT P6SM FEW050 BKN250
      TEMPO 2620/2623 4SM TSRA BKN040CB
     FM270100 13005KT P6SM FEW080
     FM270900 13004KT P6SM SCT015
     FM271400 14005KT P6SM SCT035
     FM271700 27005KT P6SM SCT050 SCT250 PROB30 2720/2723 P6SM TSRA
      BKN040CB=

USA.gov is the U.S. government's official web portal to all federal, state and local government web resources and services.